Time;durP1;ratioP1;P1;durP2;ratioP2;P2;SDS_P1;SDS_P2;PMS_P1;PMS_P2;Temp;Humidity;BMP_temperature;BMP_pressure;BME280_temperature;BME280_humidity;BME280_pressure;Samples;Min_cycle;Max_cycle;Signal;HPM_P1;HPM_P2
2023/06/04 00:01:13;;;;;;;3.80;2.40;;;;;;;14.05;nan;99440.94;5057947;28;20201;-80
2023/06/04 00:03:44;;;;;;;3.07;2.50;;;;;;;14.02;nan;99444.97;5057979;28;20300;-79
2023/06/04 00:06:11;;;;;;;3.40;2.43;;;;;;;14.02;nan;99454.91;5058023;28;20194;-79
2023/06/04 00:08:38;;;;;;;3.37;2.00;;;;;;;13.91;nan;99443.16;5057442;28;20232;-79
2023/06/04 00:11:05;;;;;;;4.47;2.67;;;;;;;13.88;nan;99442.84;5057661;28;20279;-79
2023/06/04 00:13:32;;;;;;;6.80;2.60;;;;;;;13.77;nan;99449.94;5057552;28;20211;-80
2023/06/04 00:16:00;;;;;;;3.67;2.53;;;;;;;13.83;nan;99438.19;5056914;28;20206;-79
2023/06/04 00:18:27;;;;;;;3.47;2.53;;;;;;;13.82;nan;99447.34;5057328;28;20185;-80
2023/06/04 00:20:54;;;;;;;3.33;2.70;;;;;;;13.77;nan;99443.72;5058374;28;20770;-80
2023/06/04 00:23:21;;;;;;;5.03;2.83;;;;;;;13.71;nan;99447.44;5055801;28;20705;-79
2023/06/04 00:25:50;;;;;;;4.23;2.70;;;;;;;13.74;nan;99434.28;5057543;28;20280;-79
2023/06/04 00:28:21;;;;;;;5.43;2.73;;;;;;;13.67;nan;99441.69;5041435;28;20188;-79
2023/06/04 00:30:48;;;;;;;4.90;2.57;;;;;;;13.54;nan;99442.00;5058866;28;20180;-79
2023/06/04 00:33:17;;;;;;;4.30;2.67;;;;;;;13.54;nan;99436.63;5057708;28;20182;-79
2023/06/04 00:35:45;;;;;;;4.97;2.93;;;;;;;13.56;nan;99438.03;5057808;28;20239;-79
2023/06/04 00:38:13;;;;;;;3.70;2.40;;;;;;;13.42;nan;99436.72;5057745;28;20279;-79
2023/06/04 00:40:40;;;;;;;4.27;2.40;;;;;;;13.38;nan;99432.88;5057988;28;20187;-79
2023/06/04 00:43:08;;;;;;;3.70;2.43;;;;;;;13.42;nan;99431.31;5057068;28;20702;-80
2023/06/04 00:45:37;;;;;;;5.90;2.47;;;;;;;13.32;nan;99441.09;5057456;28;20342;-80
2023/06/04 00:48:05;;;;;;;6.00;3.10;;;;;;;13.31;nan;99442.13;5056060;28;20188;-80
2023/06/04 00:50:33;;;;;;;3.90;2.50;;;;;;;13.27;nan;99436.44;5065302;28;20654;-79
2023/06/04 00:52:59;;;;;;;3.73;2.27;;;;;;;13.23;nan;99435.28;5065046;28;20255;-80
2023/06/04 00:55:26;;;;;;;4.20;2.53;;;;;;;13.14;nan;99436.72;5055157;28;20329;-80
2023/06/04 00:57:53;;;;;;;4.13;2.60;;;;;;;13.07;nan;99430.63;5055767;28;20279;-79
2023/06/04 01:00:20;;;;;;;3.57;2.60;;;;;;;13.02;nan;99425.97;5064290;28;20234;-79
2023/06/04 01:02:50;;;;;;;4.20;2.60;;;;;;;13.04;nan;99431.94;5057287;28;20625;-79
2023/06/04 01:05:17;;;;;;;4.47;2.67;;;;;;;13.04;nan;99429.25;5042981;28;20271;-79
2023/06/04 01:07:48;;;;;;;4.00;2.70;;;;;;;13.05;nan;99430.91;5044687;28;20282;-79
2023/06/04 01:10:15;;;;;;;4.57;2.57;;;;;;;12.96;nan;99431.50;5067014;28;20191;-80
2023/06/04 01:12:43;;;;;;;2.90;2.60;;;;;;;13.01;nan;99418.16;5072737;28;20246;-82
2023/06/04 01:15:11;;;;;;;4.23;2.83;;;;;;;12.96;nan;99426.13;5065770;28;20252;-79
2023/06/04 01:17:43;;;;;;;4.43;2.90;;;;;;;12.86;nan;99432.13;5065785;28;20334;-79
2023/06/04 01:20:26;;;;;;;3.10;2.70;;;;;;;12.78;nan;99425.25;5068853;28;20192;-79
2023/06/04 01:22:56;;;;;;;7.40;2.97;;;;;;;12.71;nan;99427.25;5065295;28;20564;-78
2023/06/04 01:25:32;;;;;;;5.47;2.80;;;;;;;12.65;nan;99424.69;5036368;28;20183;-79
2023/06/04 01:28:01;;;;;;;3.93;2.80;;;;;;;12.65;nan;99425.53;5049961;28;20651;-80
2023/06/04 01:30:31;;;;;;;3.83;2.83;;;;;;;12.69;nan;99423.97;5063115;28;20198;-79
2023/06/04 01:33:03;;;;;;;3.73;3.07;;;;;;;12.67;nan;99414.53;5046273;28;20208;-80
2023/06/04 01:35:31;;;;;;;5.50;3.30;;;;;;;12.57;nan;99414.31;5044615;28;20193;-80
2023/06/04 01:37:59;;;;;;;4.20;2.70;;;;;;;12.51;nan;99418.78;5065063;28;20192;-80
2023/06/04 01:40:26;;;;;;;3.10;2.70;;;;;;;12.46;nan;99407.91;5065384;28;20332;-79
2023/06/04 01:42:54;;;;;;;4.33;2.83;;;;;;;12.44;nan;99407.34;5064172;28;20303;-80
2023/06/04 01:45:22;;;;;;;3.53;3.03;;;;;;;12.41;nan;99413.19;5066708;28;20212;-79
2023/06/04 01:47:49;;;;;;;5.03;3.13;;;;;;;12.38;nan;99415.53;5074024;28;20191;-79
2023/06/04 01:50:17;;;;;;;3.77;3.00;;;;;;;12.42;nan;99422.06;5048536;28;20221;-79
2023/06/04 01:52:44;;;;;;;4.80;3.47;;;;;;;12.48;nan;99413.06;5071512;28;20702;-80
2023/06/04 01:55:14;;;;;;;4.67;3.40;;;;;;;12.52;nan;99420.41;5072710;28;20667;-80
2023/06/04 01:57:43;;;;;;;5.13;3.13;;;;;;;12.48;nan;99416.56;5030252;28;20196;-82
2023/06/04 02:00:11;;;;;;;3.10;2.80;;;;;;;12.45;nan;99432.34;5070637;28;20234;-81
2023/06/04 02:02:41;;;;;;;5.73;3.00;;;;;;;12.40;nan;99418.81;5081424;28;20219;-81
2023/06/04 02:05:09;;;;;;;4.70;3.23;;;;;;;12.35;nan;99423.03;5062229;28;20212;-79
2023/06/04 02:07:41;;;;;;;3.40;3.00;;;;;;;12.28;nan;99416.13;5059164;28;20196;-80
2023/06/04 02:10:11;;;;;;;4.57;3.23;;;;;;;12.23;nan;99419.53;5059914;28;20219;-79
2023/06/04 02:12:41;;;;;;;3.57;2.97;;;;;;;12.15;nan;99414.50;5056791;28;20206;-79
2023/06/04 02:15:10;;;;;;;6.77;3.77;;;;;;;12.11;nan;99407.97;5071288;28;20196;-79
2023/06/04 02:17:39;;;;;;;5.60;2.73;;;;;;;12.14;nan;99407.50;5064703;28;20688;-79
2023/06/04 02:20:09;;;;;;;2.97;2.60;;;;;;;12.15;nan;99411.84;5076147;28;20212;-79
2023/06/04 02:22:36;;;;;;;3.63;2.70;;;;;;;12.12;nan;99406.13;5069527;28;20638;-79
2023/06/04 02:25:05;;;;;;;5.90;3.10;;;;;;;12.03;nan;99410.22;5057877;28;20206;-79
2023/06/04 02:27:31;;;;;;;3.37;3.07;;;;;;;12.00;nan;99419.53;5066708;28;20689;-80
2023/06/04 02:29:59;;;;;;;4.60;3.17;;;;;;;11.95;nan;99410.53;5067678;28;20187;-82
2023/06/04 02:32:26;;;;;;;4.20;2.93;;;;;;;11.98;nan;99415.47;5064346;28;20269;-81
2023/06/04 02:34:54;;;;;;;4.53;2.87;;;;;;;12.11;nan;99416.03;5073318;28;20197;-80
2023/06/04 02:37:22;;;;;;;4.47;3.20;;;;;;;12.21;nan;99418.13;5063930;28;20212;-80
2023/06/04 02:39:49;;;;;;;6.73;3.07;;;;;;;12.11;nan;99417.91;5062498;28;20187;-80
2023/06/04 02:42:17;;;;;;;4.93;2.83;;;;;;;12.13;nan;99418.50;5063238;28;20229;-79
2023/06/04 02:44:46;;;;;;;4.60;2.83;;;;;;;12.16;nan;99415.34;5062918;28;20232;-79
2023/06/04 02:47:12;;;;;;;4.63;3.30;;;;;;;12.14;nan;99425.47;5067329;28;20668;-80
2023/06/04 02:49:39;;;;;;;4.03;2.93;;;;;;;12.11;nan;99425.97;5058021;28;20192;-80
2023/06/04 02:52:06;;;;;;;5.40;3.27;;;;;;;12.09;nan;99420.00;5046048;28;20238;-79
2023/06/04 02:54:33;;;;;;;5.07;3.20;;;;;;;12.11;nan;99418.72;5077848;28;20195;-79
2023/06/04 02:57:00;;;;;;;5.50;3.07;;;;;;;12.06;nan;99423.97;5063231;28;20197;-79
2023/06/04 02:59:28;;;;;;;3.70;3.10;;;;;;;12.12;nan;99424.91;5060863;28;20212;-79
2023/06/04 03:01:55;;;;;;;4.87;3.07;;;;;;;12.14;nan;99429.00;5047986;28;20215;-80
2023/06/04 03:04:21;;;;;;;6.60;2.87;;;;;;;12.14;nan;99426.31;5068040;28;20215;-80
2023/06/04 03:06:57;;;;;;;4.33;3.13;;;;;;;12.23;nan;99427.56;5055772;28;20209;-79
2023/06/04 03:09:24;;;;;;;7.13;3.27;;;;;;;12.25;nan;99430.03;5059131;28;20236;-79
2023/06/04 03:11:51;;;;;;;4.87;3.47;;;;;;;12.30;nan;99428.28;5060645;28;20206;-80
2023/06/04 03:14:20;;;;;;;6.03;3.20;;;;;;;12.46;nan;99436.69;5071025;28;20729;-79
2023/06/04 03:16:48;;;;;;;5.67;3.23;;;;;;;12.38;nan;99434.34;5064506;28;20591;-81
2023/06/04 03:19:16;;;;;;;5.30;3.30;;;;;;;12.45;nan;99437.72;5074411;28;20179;-79
2023/06/04 03:21:44;;;;;;;4.23;3.30;;;;;;;12.51;nan;99442.97;5049087;28;20202;-79
2023/06/04 03:24:12;;;;;;;4.13;3.30;;;;;;;12.66;nan;99443.28;5064820;28;20222;-79
2023/06/04 03:26:40;;;;;;;4.37;3.10;;;;;;;12.80;nan;99444.66;5058070;28;20193;-80
2023/06/04 03:29:07;;;;;;;4.80;3.60;;;;;;;12.91;nan;99442.16;5053596;28;20350;-79
2023/06/04 03:31:34;;;;;;;3.47;3.10;;;;;;;12.74;nan;99452.84;5038598;28;20202;-80
2023/06/04 03:34:01;;;;;;;3.67;3.27;;;;;;;12.75;nan;99447.22;5070672;28;20192;-79
2023/06/04 03:36:37;;;;;;;5.23;3.40;;;;;;;12.87;nan;99457.16;5073178;28;20247;-80
2023/06/04 03:39:05;;;;;;;4.13;3.20;;;;;;;12.94;nan;99447.06;5058685;28;20540;-79
2023/06/04 03:41:32;;;;;;;5.27;3.60;;;;;;;12.92;nan;99450.00;5064058;28;20209;-79
2023/06/04 03:43:59;;;;;;;4.30;3.30;;;;;;;13.11;nan;99445.28;5067752;28;20206;-79
2023/06/04 03:46:31;;;;;;;4.10;3.50;;;;;;;13.21;nan;99448.97;5040337;28;20601;-80
2023/06/04 03:48:59;;;;;;;4.73;3.23;;;;;;;13.24;nan;99442.31;5066760;28;20225;-80
2023/06/04 03:51:28;;;;;;;5.40;3.40;;;;;;;13.29;nan;99442.41;5060741;28;20216;-80
2023/06/04 03:53:55;;;;;;;5.23;3.63;;;;;;;13.30;nan;99449.38;5062562;28;20196;-80
2023/06/04 03:56:22;;;;;;;5.13;3.23;;;;;;;13.15;nan;99444.56;5057454;28;20645;-80
2023/06/04 03:58:50;;;;;;;6.30;3.77;;;;;;;13.08;nan;99443.84;5065005;28;20291;-79
2023/06/04 04:01:18;;;;;;;5.87;3.60;;;;;;;13.19;nan;99453.78;5036338;28;20192;-80
2023/06/04 04:03:49;;;;;;;7.70;3.63;;;;;;;13.34;nan;99452.44;5075351;28;20216;-80
2023/06/04 04:06:18;;;;;;;4.47;3.60;;;;;;;13.44;nan;99447.22;5056092;28;20670;-80
2023/06/04 04:08:45;;;;;;;4.83;2.97;;;;;;;13.49;nan;99455.38;5058295;28;20251;-80
2023/06/04 04:11:14;;;;;;;6.47;3.77;;;;;;;13.55;nan;99457.09;5051151;28;20257;-80
2023/06/04 04:13:41;;;;;;;3.53;3.00;;;;;;;13.65;nan;99460.78;5060065;28;20244;-79
2023/06/04 04:16:10;;;;;;;5.60;3.57;;;;;;;13.70;nan;99462.75;5044014;28;20196;-80
2023/06/04 04:18:37;;;;;;;4.83;3.77;;;;;;;13.78;nan;99465.03;5062493;28;20193;-79
2023/06/04 04:21:04;;;;;;;4.83;3.60;;;;;;;13.96;nan;99459.41;5051416;28;20286;-80
2023/06/04 04:23:32;;;;;;;4.40;3.37;;;;;;;14.08;nan;99462.84;5047869;28;20215;-80
2023/06/04 04:25:59;;;;;;;3.77;3.30;;;;;;;14.23;nan;99473.00;5062337;28;20285;-79
2023/06/04 04:28:32;;;;;;;6.23;3.90;;;;;;;14.39;nan;99463.31;5042145;28;20208;-80
2023/06/04 04:31:02;;;;;;;4.03;3.53;;;;;;;14.57;nan;99475.69;5058924;28;20651;-79
2023/06/04 04:33:36;;;;;;;5.17;3.40;;;;;;;14.62;nan;99479.25;5037598;28;20290;-80
2023/06/04 04:36:04;;;;;;;3.90;3.33;;;;;;;14.80;nan;99483.53;5057101;28;20743;-80
2023/06/04 04:38:33;;;;;;;6.20;3.77;;;;;;;14.91;nan;99478.03;5074322;28;20185;-80
2023/06/04 04:41:07;;;;;;;4.43;3.67;;;;;;;14.99;nan;99472.19;5069637;28;20216;-80
2023/06/04 04:43:39;;;;;;;4.13;3.77;;;;;;;15.09;nan;99473.38;5056312;28;20201;-80
2023/06/04 04:46:22;;;;;;;5.53;3.90;;;;;;;15.19;nan;99481.59;5055097;28;20221;-80
2023/06/04 04:48:50;;;;;;;5.33;3.90;;;;;;;15.31;nan;99476.84;5055146;28;20201;-80
2023/06/04 04:51:17;;;;;;;4.30;3.87;;;;;;;15.32;nan;99475.78;5054160;28;20197;-80
2023/06/04 04:53:44;;;;;;;5.47;3.90;;;;;;;15.65;nan;99472.09;5037822;28;20563;-80
2023/06/04 04:56:11;;;;;;;5.20;3.83;;;;;;;15.82;nan;99470.91;5061065;28;20191;-80
2023/06/04 04:58:42;;;;;;;4.93;3.50;;;;;;;15.86;nan;99469.31;5048331;28;20197;-80
2023/06/04 05:01:10;;;;;;;4.20;3.80;;;;;;;15.85;nan;99462.28;5041175;28;20209;-81
2023/06/04 05:03:38;;;;;;;4.50;3.40;;;;;;;15.83;nan;99456.31;5074499;28;20695;-80
2023/06/04 05:06:06;;;;;;;5.47;4.10;;;;;;;15.73;nan;99469.75;5037345;28;20644;-80
2023/06/04 05:08:33;;;;;;;6.17;4.07;;;;;;;15.66;nan;99473.72;5051957;28;20241;-80
2023/06/04 05:11:00;;;;;;;4.17;3.73;;;;;;;15.84;nan;99476.88;5064469;28;20292;-80
2023/06/04 05:13:28;;;;;;;5.77;3.77;;;;;;;15.85;nan;99480.38;5071116;28;20680;-80
2023/06/04 05:16:06;;;;;;;5.27;3.97;;;;;;;16.01;nan;99489.41;5063978;28;20212;-80
2023/06/04 05:18:44;;;;;;;7.17;3.80;;;;;;;16.09;nan;99499.78;5074334;28;20687;-80
2023/06/04 05:21:16;;;;;;;4.10;3.70;;;;;;;16.08;nan;99504.34;5063124;28;20276;-80
2023/06/04 05:23:52;;;;;;;5.70;4.00;;;;;;;16.10;nan;99496.78;5052935;28;20212;-80
2023/06/04 05:26:27;;;;;;;5.07;4.10;;;;;;;16.09;nan;99494.38;5071661;28;20208;-80
2023/06/04 05:28:59;;;;;;;7.53;4.47;;;;;;;16.31;nan;99497.75;5078288;28;20287;-81
2023/06/04 05:31:33;;;;;;;5.90;4.00;;;;;;;16.43;nan;99503.78;5048526;28;20194;-81
2023/06/04 05:34:04;;;;;;;4.97;4.47;;;;;;;16.49;nan;99508.16;5023130;28;20241;-79
2023/06/04 05:36:32;;;;;;;6.53;4.37;;;;;;;16.58;nan;99500.41;5043772;28;20280;-80
2023/06/04 05:39:03;;;;;;;4.60;4.20;;;;;;;16.76;nan;99510.78;5077421;28;20220;-80
2023/06/04 05:41:55;;;;;;;6.07;4.60;;;;;;;17.06;nan;99512.81;5045797;28;20209;-80
2023/06/04 05:44:22;;;;;;;5.43;4.57;;;;;;;17.01;nan;99510.09;5058287;28;20236;-80
2023/06/04 05:46:50;;;;;;;4.50;4.10;;;;;;;16.87;nan;99504.34;5058720;28;20194;-80
2023/06/04 05:49:17;;;;;;;4.93;4.30;;;;;;;17.21;nan;99522.91;5042530;28;20205;-81
2023/06/04 05:51:44;;;;;;;4.37;4.00;;;;;;;17.18;nan;99518.81;5058745;28;20659;-80
2023/06/04 05:54:11;;;;;;;6.73;4.47;;;;;;;17.17;nan;99520.69;5058490;28;20224;-79
2023/06/04 05:56:41;;;;;;;6.83;4.60;;;;;;;17.33;nan;99529.69;5058708;28;20267;-80
2023/06/04 05:59:08;;;;;;;5.63;4.50;;;;;;;17.34;nan;99535.94;5058608;28;20193;-80
2023/06/04 06:01:36;;;;;;;5.40;4.60;;;;;;;17.39;nan;99534.06;5039365;28;20200;-80
2023/06/04 06:04:03;;;;;;;5.27;4.33;;;;;;;17.34;nan;99531.34;5054797;28;20220;-80
2023/06/04 06:06:30;;;;;;;4.90;4.40;;;;;;;17.23;nan;99534.25;5038515;28;20683;-81
2023/06/04 06:08:58;;;;;;;5.17;4.77;;;;;;;17.14;nan;99542.06;5039403;28;20695;-80
2023/06/04 06:11:26;;;;;;;7.43;4.70;;;;;;;17.35;nan;99538.38;5039273;28;20196;-79
2023/06/04 06:13:54;;;;;;;5.30;4.80;;;;;;;17.29;nan;99541.31;5056360;28;20257;-79
2023/06/04 06:16:21;;;;;;;5.73;5.20;;;;;;;17.28;nan;99532.38;5041211;28;20202;-80
2023/06/04 06:18:48;;;;;;;5.40;4.90;;;;;;;17.54;nan;99544.91;5055133;28;20204;-80
2023/06/04 06:21:15;;;;;;;6.97;5.03;;;;;;;17.62;nan;99549.06;5054841;28;20186;-80
2023/06/04 06:23:42;;;;;;;8.60;4.67;;;;;;;17.51;nan;99544.66;5056393;28;20186;-80
2023/06/04 06:26:09;;;;;;;6.53;5.07;;;;;;;17.03;nan;99549.34;5057203;28;20198;-80
2023/06/04 06:28:48;;;;;;;5.00;4.50;;;;;;;17.24;nan;99550.25;5057872;28;20182;-79
2023/06/04 06:31:15;;;;;;;5.80;4.40;;;;;;;17.08;nan;99545.84;5039414;28;20217;-80
2023/06/04 06:33:42;;;;;;;7.23;4.77;;;;;;;16.96;nan;99548.78;5055864;28;20194;-80
2023/06/04 06:36:12;;;;;;;5.27;4.80;;;;;;;17.02;nan;99550.44;5055025;28;20178;-80
2023/06/04 06:38:39;;;;;;;5.30;4.77;;;;;;;17.18;nan;99548.59;5054544;28;20182;-80
2023/06/04 06:41:06;;;;;;;6.00;4.57;;;;;;;17.25;nan;99548.34;5055333;28;20714;-80
2023/06/04 06:43:33;;;;;;;5.63;4.80;;;;;;;17.32;nan;99548.91;5055363;28;20644;-81
2023/06/04 06:46:00;;;;;;;7.63;4.73;;;;;;;17.38;nan;99548.69;5054043;28;20255;-81
2023/06/04 06:48:27;;;;;;;4.90;4.23;;;;;;;17.38;nan;99551.38;5070993;28;20599;-81
2023/06/04 06:50:55;;;;;;;5.97;4.57;;;;;;;17.29;nan;99552.97;5065275;28;20526;-79
2023/06/04 06:53:21;;;;;;;8.60;4.63;;;;;;;17.46;nan;99555.47;5068156;28;20189;-80
2023/06/04 06:55:48;;;;;;;5.00;4.50;;;;;;;17.52;nan;99549.81;5072921;28;20604;-80
2023/06/04 06:58:15;;;;;;;5.20;4.70;;;;;;;17.58;nan;99551.50;5068540;28;20249;-81
2023/06/04 07:00:42;;;;;;;5.40;4.90;;;;;;;17.66;nan;99557.44;5060743;28;20194;-80
2023/06/04 07:03:09;;;;;;;5.60;4.27;;;;;;;17.63;nan;99561.53;5062430;28;20656;-80
2023/06/04 07:05:35;;;;;;;6.63;4.90;;;;;;;17.81;nan;99566.44;5043783;28;20219;-81
2023/06/04 07:08:02;;;;;;;5.03;4.50;;;;;;;17.48;nan;99562.25;5064037;28;20225;-81
2023/06/04 07:10:29;;;;;;;4.93;4.33;;;;;;;17.82;nan;99562.66;5041039;28;20191;-81
2023/06/04 07:12:56;;;;;;;4.40;3.97;;;;;;;18.02;nan;99561.84;5066604;28;20729;-81
2023/06/04 07:15:23;;;;;;;5.33;4.60;;;;;;;18.06;nan;99556.72;5046727;28;20620;-81
2023/06/04 07:17:50;;;;;;;4.60;4.00;;;;;;;18.22;nan;99558.34;5054577;28;20201;-80
2023/06/04 07:20:17;;;;;;;4.80;4.20;;;;;;;18.66;nan;99569.47;5067407;28;20197;-80
2023/06/04 07:22:44;;;;;;;4.93;4.47;;;;;;;18.98;nan;99552.84;5056196;28;20847;-83
2023/06/04 07:25:11;;;;;;;5.17;4.00;;;;;;;19.48;nan;99557.28;5067918;28;20201;-81
2023/06/04 07:27:38;;;;;;;5.10;4.20;;;;;;;19.70;nan;99554.97;5058437;28;20184;-81
2023/06/04 07:30:06;;;;;;;4.53;4.00;;;;;;;20.05;nan;99559.38;5064325;28;20665;-81
2023/06/04 07:32:33;;;;;;;5.67;4.30;;;;;;;20.42;nan;99554.22;5064736;28;20260;-82
2023/06/04 07:35:00;;;;;;;5.03;4.10;;;;;;;20.82;nan;99554.91;5068494;28;20195;-79
2023/06/04 07:37:26;;;;;;;4.90;4.37;;;;;;;20.49;nan;99554.69;5063544;28;20183;-79
2023/06/04 07:39:53;;;;;;;5.43;4.20;;;;;;;20.29;nan;99556.75;5070269;28;20252;-78
2023/06/04 07:42:20;;;;;;;4.93;4.00;;;;;;;21.06;nan;99558.44;5062661;28;20233;-79
2023/06/04 07:44:47;;;;;;;6.10;4.10;;;;;;;21.36;nan;99549.13;5069756;28;20231;-78
2023/06/04 07:47:13;;;;;;;6.33;4.43;;;;;;;21.80;nan;99554.25;5071907;28;20188;-78
2023/06/04 07:49:40;;;;;;;5.33;4.27;;;;;;;21.63;nan;99553.97;5061975;28;20572;-78
2023/06/04 07:52:19;;;;;;;5.10;3.80;;;;;;;22.00;nan;99558.63;5065146;28;20210;-78
2023/06/04 07:54:46;;;;;;;7.27;4.10;;;;;;;22.03;nan;99568.94;5069210;28;20186;-77
2023/06/04 07:57:13;;;;;;;5.67;4.13;;;;;;;21.88;nan;99567.25;5070371;28;20193;-78
2023/06/04 07:59:40;;;;;;;5.53;3.97;;;;;;;21.77;nan;99557.56;5063802;28;20194;-78
2023/06/04 08:02:07;;;;;;;4.73;4.13;;;;;;;21.85;nan;99565.09;5065362;28;20651;-78
2023/06/04 08:04:34;;;;;;;6.80;4.00;;;;;;;21.71;nan;99561.47;5064616;28;20243;-78
2023/06/04 08:07:01;;;;;;;6.90;4.30;;;;;;;21.67;nan;99566.69;5060345;28;20191;-78
2023/06/04 08:09:27;;;;;;;4.20;3.80;;;;;;;21.76;nan;99569.56;5057370;28;20217;-78
2023/06/04 08:11:54;;;;;;;4.63;4.20;;;;;;;21.86;nan;99572.97;5062467;28;20185;-77
2023/06/04 08:14:22;;;;;;;5.80;4.30;;;;;;;22.06;nan;99576.53;5064553;28;20193;-78
2023/06/04 08:16:49;;;;;;;5.85;4.30;;;;;;;22.34;nan;99578.28;5057111;28;20186;-77
2023/06/04 08:19:15;;;;;;;4.10;3.70;;;;;;;22.16;nan;99574.44;5058796;28;20721;-77
2023/06/04 08:21:42;;;;;;;6.88;3.97;;;;;;;22.16;nan;99570.94;5054874;28;20286;-77
2023/06/04 08:24:09;;;;;;;5.88;3.90;;;;;;;22.39;nan;99570.81;5067233;28;20203;-77
2023/06/04 08:26:36;;;;;;;6.38;4.00;;;;;;;22.60;nan;99565.81;5057632;28;20191;-78
2023/06/04 08:29:04;;;;;;;4.30;3.90;;;;;;;22.12;nan;99570.69;5064932;28;20242;-77
2023/06/04 08:31:31;;;;;;;7.30;4.40;;;;;;;21.87;nan;99577.34;5067906;28;20238;-78
2023/06/04 08:33:58;;;;;;;4.90;3.80;;;;;;;22.55;nan;99567.81;5060925;28;20221;-78
2023/06/04 08:36:25;;;;;;;5.23;3.93;;;;;;;22.08;nan;99580.59;5058658;28;20345;-78
2023/06/04 08:38:53;;;;;;;7.20;4.25;;;;;;;22.12;nan;99576.16;5054639;28;20192;-77
2023/06/04 08:41:28;;;;;;;4.30;3.90;;;;;;;22.63;nan;99578.06;5066194;28;20196;-77
2023/06/04 08:43:57;;;;;;;6.35;4.03;;;;;;;22.71;nan;99580.94;5057935;28;20192;-78
2023/06/04 08:46:28;;;;;;;4.53;4.03;;;;;;;22.58;nan;99570.78;5065510;28;20294;-78
2023/06/04 08:49:01;;;;;;;4.40;4.00;;;;;;;22.88;nan;99574.88;5064878;28;20555;-78
2023/06/04 08:51:28;;;;;;;5.43;4.00;;;;;;;23.54;nan;99566.22;5059502;28;20678;-78
2023/06/04 08:53:57;;;;;;;5.63;3.65;;;;;;;23.65;nan;99572.28;5061621;28;20195;-78
2023/06/04 08:56:24;;;;;;;4.63;3.20;;;;;;;24.55;nan;99579.47;5056918;28;20213;-76
2023/06/04 08:58:50;;;;;;;7.20;4.22;;;;;;;24.98;nan;99571.50;5059720;28;20655;-77
2023/06/04 09:01:18;;;;;;;6.53;3.55;;;;;;;25.27;nan;99573.72;5047438;28;20191;-77
2023/06/04 09:03:45;;;;;;;4.57;3.38;;;;;;;25.29;nan;99571.47;5050752;28;20204;-76
2023/06/04 09:06:12;;;;;;;6.28;2.90;;;;;;;25.18;nan;99573.69;5058084;28;20225;-78
2023/06/04 09:08:42;;;;;;;5.30;3.42;;;;;;;25.55;nan;99579.78;5057178;28;20222;-77
2023/06/04 09:11:13;;;;;;;4.85;3.55;;;;;;;25.73;nan;99578.69;5064801;28;20589;-77
2023/06/04 09:13:43;;;;;;;3.55;2.83;;;;;;;25.03;nan;99582.34;5062534;28;20212;-77
2023/06/04 09:16:09;;;;;;;3.42;3.13;;;;;;;24.88;nan;99583.56;5057116;28;20544;-77
2023/06/04 09:18:36;;;;;;;4.88;3.33;;;;;;;25.23;nan;99584.53;5060332;28;20245;-77
2023/06/04 09:21:08;;;;;;;6.47;3.60;;;;;;;24.44;nan;99578.94;5066312;28;20212;-77
2023/06/04 09:23:44;;;;;;;5.18;3.20;;;;;;;24.32;nan;99584.13;5067262;28;20189;-77
2023/06/04 09:26:11;;;;;;;5.53;3.33;;;;;;;23.47;nan;99578.69;5065727;28;20259;-78
2023/06/04 09:28:42;;;;;;;3.88;3.47;;;;;;;23.73;nan;99590.69;5066953;28;20204;-77
2023/06/04 09:31:10;;;;;;;5.10;3.33;;;;;;;24.78;nan;99570.09;5070561;28;20187;-77
2023/06/04 09:33:48;;;;;;;4.47;3.17;;;;;;;24.40;nan;99577.91;5063624;28;20182;-77
2023/06/04 09:36:15;;;;;;;4.88;3.17;;;;;;;24.56;nan;99573.69;5032720;28;20728;-78
2023/06/04 09:38:42;;;;;;;3.70;3.25;;;;;;;24.95;nan;99567.47;5063239;28;20713;-77
2023/06/04 09:41:15;;;;;;;3.25;2.70;;;;;;;25.49;nan;99573.63;5061824;28;20201;-78
2023/06/04 09:43:43;;;;;;;3.53;2.75;;;;;;;25.66;nan;99581.91;5058914;28;20772;-78
2023/06/04 09:46:14;;;;;;;4.53;2.90;;;;;;;24.28;nan;99572.19;5065243;28;20763;-78
2023/06/04 09:48:42;;;;;;;4.00;2.88;;;;;;;24.26;nan;99576.38;5070116;28;20196;-78
2023/06/04 09:51:19;;;;;;;7.30;3.03;;;;;;;24.85;nan;99575.13;5056057;28;20178;-77
2023/06/04 09:53:57;;;;;;;5.43;2.80;;;;;;;24.50;nan;99583.13;5059700;28;20224;-77
2023/06/04 09:56:24;;;;;;;3.90;2.78;;;;;;;24.99;nan;99579.41;5068218;28;20282;-79
2023/06/04 09:58:54;;;;;;;3.92;2.60;;;;;;;23.32;nan;99581.69;5061313;28;20190;-80
2023/06/04 10:01:23;;;;;;;4.78;2.70;;;;;;;23.11;nan;99582.09;5064209;28;20202;-79
2023/06/04 10:03:50;;;;;;;4.28;2.75;;;;;;;24.11;nan;99578.34;5063490;28;20182;-79
2023/06/04 10:06:20;;;;;;;4.00;2.58;;;;;;;24.17;nan;99573.56;5060535;28;20208;-79
2023/06/04 10:08:49;;;;;;;5.15;2.58;;;;;;;23.94;nan;99569.16;5059684;28;20236;-79
2023/06/04 10:11:26;;;;;;;3.75;2.60;;;;;;;22.79;nan;99585.72;5057735;28;20281;-79
2023/06/04 10:14:00;;;;;;;3.50;2.40;;;;;;;23.07;nan;99586.56;5061384;28;20192;-79
2023/06/04 10:16:27;;;;;;;2.78;2.30;;;;;;;24.42;nan;99570.19;5059304;28;20193;-78
2023/06/04 10:19:00;;;;;;;3.78;2.40;;;;;;;24.96;nan;99574.56;5073442;28;20189;-80
2023/06/04 10:21:27;;;;;;;3.25;2.35;;;;;;;25.65;nan;99574.00;5072339;28;20226;-80
2023/06/04 10:23:54;;;;;;;2.92;2.60;;;;;;;26.51;nan;99576.75;5071367;28;20218;-80
2023/06/04 10:26:21;;;;;;;3.83;2.67;;;;;;;26.75;nan;99568.78;5072972;28;20208;-79
2023/06/04 10:28:48;;;;;;;3.38;2.33;;;;;;;26.56;nan;99571.91;5056086;28;20193;-79
2023/06/04 10:31:15;;;;;;;3.95;2.40;;;;;;;26.73;nan;99568.34;5054891;28;20197;-79
2023/06/04 10:33:42;;;;;;;4.40;2.72;;;;;;;27.22;nan;99569.63;5072234;28;20651;-79
2023/06/04 10:36:20;;;;;;;4.88;2.70;;;;;;;27.17;nan;99578.03;5054804;28;20676;-81
2023/06/04 10:38:52;;;;;;;4.43;2.80;;;;;;;27.69;nan;99575.84;5057773;28;20287;-81
2023/06/04 10:41:22;;;;;;;3.65;2.38;;;;;;;28.12;nan;99583.00;5063257;28;20192;-78
2023/06/04 10:43:50;;;;;;;4.50;2.58;;;;;;;28.16;nan;99568.22;5060775;28;20194;-78
2023/06/04 10:46:18;;;;;;;2.38;2.17;;;;;;;28.32;nan;99577.47;5057875;28;20224;-81
2023/06/04 10:48:52;;;;;;;3.13;2.20;;;;;;;28.06;nan;99576.88;5060390;28;20192;-78
2023/06/04 10:51:32;;;;;;;3.20;2.17;;;;;;;27.77;nan;99560.41;5055789;28;20193;-79
2023/06/04 10:54:01;;;;;;;3.05;2.20;;;;;;;28.12;nan;99574.75;5058931;28;20263;-79
2023/06/04 10:56:31;;;;;;;3.40;2.30;;;;;;;27.90;nan;99570.38;5058057;28;20243;-79
2023/06/04 10:58:59;;;;;;;4.47;2.58;;;;;;;28.35;nan;99567.72;5059856;28;20650;-78
2023/06/04 11:01:31;;;;;;;3.28;2.08;;;;;;;28.68;nan;99564.97;5059066;28;20733;-79
2023/06/04 11:03:58;;;;;;;3.78;2.40;;;;;;;28.29;nan;99567.13;5048304;28;20197;-79
2023/06/04 11:06:28;;;;;;;2.28;2.08;;;;;;;28.49;nan;99559.16;5065721;28;20793;-80
2023/06/04 11:09:08;;;;;;;2.50;2.20;;;;;;;28.85;nan;99573.06;5055399;28;20259;-81
2023/06/04 11:11:35;;;;;;;3.35;2.10;;;;;;;28.73;nan;99571.09;5049619;28;20192;-78
2023/06/04 11:14:12;;;;;;;4.00;2.25;;;;;;;28.78;nan;99562.63;5039008;28;20524;-78
2023/06/04 11:16:39;;;;;;;3.38;2.20;;;;;;;28.39;nan;99563.97;5055965;28;20576;-79
2023/06/04 11:19:06;;;;;;;4.72;2.00;;;;;;;28.55;nan;99566.09;5048068;28;20198;-79
2023/06/04 11:21:36;;;;;;;3.42;2.20;;;;;;;28.25;nan;99554.38;5067587;28;20607;-79
2023/06/04 11:24:03;;;;;;;4.10;2.13;;;;;;;28.37;nan;99557.97;5055885;28;20181;-79
2023/06/04 11:26:33;;;;;;;4.10;2.15;;;;;;;28.64;nan;99555.78;5055181;28;20202;-79
2023/06/04 11:29:06;;;;;;;3.13;1.80;;;;;;;28.67;nan;99555.09;5060364;28;20190;-79
2023/06/04 11:31:51;;;;;;;2.80;2.30;;;;;;;27.96;nan;99550.53;5062244;28;20185;-79
2023/06/04 11:34:29;;;;;;;2.63;1.92;;;;;;;28.15;nan;99560.28;5061866;28;20189;-79
2023/06/04 11:37:07;;;;;;;3.55;1.90;;;;;;;27.79;nan;99563.63;5059831;28;20284;-79
2023/06/04 11:39:35;;;;;;;2.20;2.00;;;;;;;28.01;nan;99566.84;5059722;28;20258;-79
2023/06/04 11:42:05;;;;;;;4.95;1.90;;;;;;;28.09;nan;99569.91;5067781;28;20193;-79
2023/06/04 11:44:32;;;;;;;3.03;1.92;;;;;;;28.41;nan;99566.38;5060387;28;20599;-79
2023/06/04 11:46:59;;;;;;;5.00;2.17;;;;;;;27.69;nan;99570.34;5062579;28;20198;-78
2023/06/04 11:49:27;;;;;;;2.50;1.90;;;;;;;27.25;nan;99581.91;5062671;28;20192;-79
2023/06/04 11:51:54;;;;;;;3.05;2.00;;;;;;;27.33;nan;99581.06;5055391;28;20553;-79
2023/06/04 11:54:21;;;;;;;3.60;1.80;;;;;;;27.17;nan;99584.34;5054587;28;20193;-79
2023/06/04 11:56:49;;;;;;;2.38;1.80;;;;;;;27.11;nan;99584.84;5062308;28;20704;-79
2023/06/04 11:59:17;;;;;;;2.10;2.00;;;;;;;27.32;nan;99587.69;5051787;28;20205;-80